sensor_id;sensor_type;location;lat;lon;timestamp;pressure;altitude;pressure_sealevel;temperature;humidity
63901;BME280;50538;53.482;10.294;2023-04-24T00:02:22;99604.88;;;12.87;91.09
63901;BME280;50538;53.482;10.294;2023-04-24T00:34:17;99574.63;;;12.69;92.59
63901;BME280;50538;53.482;10.294;2023-04-24T03:27:53;99513.63;;;11.55;89.28
63901;BME280;50538;53.482;10.294;2023-04-24T03:37:54;99509.69;;;11.44;91.31
63901;BME280;50538;53.482;10.294;2023-04-24T03:47:57;99502.50;;;11.32;90.90
63901;BME280;50538;53.482;10.294;2023-04-24T03:57:58;99513.50;;;11.22;90.02
63901;BME280;50538;53.482;10.294;2023-04-24T04:08:03;99523.09;;;11.10;89.41
63901;BME280;50538;53.482;10.294;2023-04-24T04:19:06;99518.75;;;10.95;88.95
63901;BME280;50538;53.482;10.294;2023-04-24T04:29:25;99522.75;;;10.85;88.43
63901;BME280;50538;53.482;10.294;2023-04-24T04:39:27;99526.97;;;10.73;88.17
63901;BME280;50538;53.482;10.294;2023-04-24T04:49:32;99518.16;;;10.66;87.39
63901;BME280;50538;53.482;10.294;2023-04-24T04:59:33;99525.69;;;10.62;86.75
63901;BME280;50538;53.482;10.294;2023-04-24T05:09:33;99514.69;;;10.65;85.53
63901;BME280;50538;53.482;10.294;2023-04-24T05:19:34;99525.38;;;10.78;84.32
63901;BME280;50538;53.482;10.294;2023-04-24T05:29:36;99523.44;;;10.93;84.31
63901;BME280;50538;53.482;10.294;2023-04-24T05:39:36;99530.00;;;10.98;83.84
63901;BME280;50538;53.482;10.294;2023-04-24T05:49:37;99538.47;;;11.27;82.88
63901;BME280;50538;53.482;10.294;2023-04-24T05:59:38;99523.84;;;11.65;82.70
63901;BME280;50538;53.482;10.294;2023-04-24T06:09:38;99522.66;;;12.00;80.68
63901;BME280;50538;53.482;10.294;2023-04-24T06:19:39;99531.22;;;12.35;78.79
63901;BME280;50538;53.482;10.294;2023-04-24T06:29:40;99541.84;;;12.62;76.55
63901;BME280;50538;53.482;10.294;2023-04-24T06:39:41;99541.78;;;12.88;74.86
63901;BME280;50538;53.482;10.294;2023-04-24T06:49:41;99538.19;;;13.20;74.72
63901;BME280;50538;53.482;10.294;2023-04-24T06:59:42;99536.13;;;13.54;71.56
63901;BME280;50538;53.482;10.294;2023-04-24T07:09:42;99533.75;;;13.77;70.17
63901;BME280;50538;53.482;10.294;2023-04-24T07:20:04;99529.66;;;13.75;67.64
63901;BME280;50538;53.482;10.294;2023-04-24T07:30:49;99542.22;;;13.68;66.33
63901;BME280;50538;53.482;10.294;2023-04-24T08:22:32;99570.72;;;14.55;63.97
63901;BME280;50538;53.482;10.294;2023-04-24T08:33:26;99576.13;;;14.67;64.13
63901;BME280;50538;53.482;10.294;2023-04-24T08:55:03;99586.63;;;15.41;60.65
63901;BME280;50538;53.482;10.294;2023-04-24T10:31:21;99624.25;;;15.46;57.88
63901;BME280;50538;53.482;10.294;2023-04-24T10:41:53;99630.56;;;15.34;59.41
63901;BME280;50538;53.482;10.294;2023-04-24T10:52:26;99635.97;;;15.27;60.71
63901;BME280;50538;53.482;10.294;2023-04-24T11:02:48;99630.56;;;15.52;60.07
63901;BME280;50538;53.482;10.294;2023-04-24T11:13:02;99627.72;;;15.65;58.64
63901;BME280;50538;53.482;10.294;2023-04-24T11:23:03;99606.38;;;16.30;54.62
63901;BME280;50538;53.482;10.294;2023-04-24T11:33:05;99620.06;;;15.80;56.08
63901;BME280;50538;53.482;10.294;2023-04-24T11:43:06;99623.72;;;15.19;57.22
63901;BME280;50538;53.482;10.294;2023-04-24T11:53:10;99627.41;;;15.00;57.87
63901;BME280;50538;53.482;10.294;2023-04-24T12:03:11;99619.78;;;15.40;55.90
63901;BME280;50538;53.482;10.294;2023-04-24T12:13:12;99615.97;;;15.66;53.85
63901;BME280;50538;53.482;10.294;2023-04-24T12:23:13;99610.09;;;15.87;55.46
63901;BME280;50538;53.482;10.294;2023-04-24T12:33:20;99622.97;;;16.09;54.43
63901;BME280;50538;53.482;10.294;2023-04-24T12:43:21;99611.69;;;15.77;55.19
63901;BME280;50538;53.482;10.294;2023-04-24T12:53:21;99633.59;;;15.19;54.27
63901;BME280;50538;53.482;10.294;2023-04-24T13:03:22;99635.13;;;14.65;57.77
63901;BME280;50538;53.482;10.294;2023-04-24T13:13:24;99645.59;;;14.17;59.82
63901;BME280;50538;53.482;10.294;2023-04-24T14:18:41;99632.50;;;13.71;61.48
63901;BME280;50538;53.482;10.294;2023-04-24T15:33:11;99701.88;;;11.86;81.61
63901;BME280;50538;53.482;10.294;2023-04-24T15:43:16;99720.78;;;11.56;86.84
63901;BME280;50538;53.482;10.294;2023-04-24T15:53:17;99740.03;;;11.31;88.51
63901;BME280;50538;53.482;10.294;2023-04-24T16:03:21;99753.72;;;11.00;87.16
63901;BME280;50538;53.482;10.294;2023-04-24T16:13:21;99782.56;;;10.39;85.98
63901;BME280;50538;53.482;10.294;2023-04-24T16:23:40;99805.00;;;10.21;88.38
63901;BME280;50538;53.482;10.294;2023-04-24T16:33:42;99839.59;;;10.13;89.16
63901;BME280;50538;53.482;10.294;2023-04-24T16:43:42;99847.28;;;9.79;87.09
63901;BME280;50538;53.482;10.294;2023-04-24T16:53:50;99857.97;;;9.56;87.94
63901;BME280;50538;53.482;10.294;2023-04-24T17:03:51;99881.41;;;9.44;92.54
63901;BME280;50538;53.482;10.294;2023-04-24T17:13:52;99887.41;;;9.23;93.08
63901;BME280;50538;53.482;10.294;2023-04-24T17:24:19;99898.53;;;9.19;94.30
63901;BME280;50538;53.482;10.294;2023-04-24T17:34:19;99897.78;;;9.10;94.25
63901;BME280;50538;53.482;10.294;2023-04-24T17:44:24;99890.19;;;9.07;94.93
63901;BME280;50538;53.482;10.294;2023-04-24T17:54:24;99895.50;;;8.99;94.67
63901;BME280;50538;53.482;10.294;2023-04-24T18:04:25;99907.97;;;8.90;93.93
63901;BME280;50538;53.482;10.294;2023-04-24T18:14:26;99906.31;;;8.89;95.62
63901;BME280;50538;53.482;10.294;2023-04-24T18:24:27;99911.13;;;8.86;96.62
63901;BME280;50538;53.482;10.294;2023-04-24T18:34:31;99908.19;;;8.81;96.99
63901;BME280;50538;53.482;10.294;2023-04-24T18:44:48;99920.41;;;8.82;97.77
63901;BME280;50538;53.482;10.294;2023-04-24T18:54:50;99934.78;;;8.87;97.26
63901;BME280;50538;53.482;10.294;2023-04-24T19:04:56;99935.59;;;8.88;96.01
63901;BME280;50538;53.482;10.294;2023-04-24T19:15:04;99961.25;;;8.87;95.14
63901;BME280;50538;53.482;10.294;2023-04-24T19:25:17;99959.25;;;8.89;93.82
63901;BME280;50538;53.482;10.294;2023-04-24T19:35:17;99971.84;;;8.87;93.94
63901;BME280;50538;53.482;10.294;2023-04-24T19:45:18;99968.38;;;8.87;94.39
63901;BME280;50538;53.482;10.294;2023-04-24T19:55:24;99959.94;;;8.83;94.83
63901;BME280;50538;53.482;10.294;2023-04-24T20:05:36;99964.06;;;8.86;95.48
63901;BME280;50538;53.482;10.294;2023-04-24T20:15:40;99962.25;;;8.86;96.22
63901;BME280;50538;53.482;10.294;2023-04-24T20:25:42;99960.59;;;8.85;97.00
63901;BME280;50538;53.482;10.294;2023-04-24T20:35:47;99964.59;;;8.81;96.43
63901;BME280;50538;53.482;10.294;2023-04-24T20:45:54;99972.00;;;8.86;95.88
63901;BME280;50538;53.482;10.294;2023-04-24T20:56:29;99965.25;;;8.83;95.24
63901;BME280;50538;53.482;10.294;2023-04-24T21:06:36;99974.34;;;8.81;94.53
63901;BME280;50538;53.482;10.294;2023-04-24T21:16:58;99982.28;;;8.81;94.27
63901;BME280;50538;53.482;10.294;2023-04-24T21:27:03;99981.47;;;8.80;96.19
63901;BME280;50538;53.482;10.294;2023-04-24T21:37:28;99986.81;;;8.72;96.33
63901;BME280;50538;53.482;10.294;2023-04-24T21:47:35;99991.31;;;8.72;96.18
63901;BME280;50538;53.482;10.294;2023-04-24T21:57:35;99992.13;;;8.72;96.23
63901;BME280;50538;53.482;10.294;2023-04-24T22:07:50;100001.56;;;8.67;95.23
63901;BME280;50538;53.482;10.294;2023-04-24T22:18:27;100001.09;;;8.63;94.71
63901;BME280;50538;53.482;10.294;2023-04-24T22:28:35;99988.84;;;8.62;94.75
63901;BME280;50538;53.482;10.294;2023-04-24T22:38:41;99998.13;;;8.58;95.05
63901;BME280;50538;53.482;10.294;2023-04-24T22:48:42;99984.75;;;8.51;95.76
63901;BME280;50538;53.482;10.294;2023-04-24T22:58:47;99993.50;;;8.52;96.55
63901;BME280;50538;53.482;10.294;2023-04-24T23:08:52;99987.56;;;8.50;97.89
63901;BME280;50538;53.482;10.294;2023-04-24T23:18:56;99988.41;;;8.42;98.69
63901;BME280;50538;53.482;10.294;2023-04-24T23:28:59;99992.41;;;8.38;99.50
63901;BME280;50538;53.482;10.294;2023-04-24T23:38:59;99996.38;;;8.34;99.60
63901;BME280;50538;53.482;10.294;2023-04-24T23:49:09;99993.72;;;8.34;99.25
63901;BME280;50538;53.482;10.294;2023-04-24T23:59:09;99992.06;;;8.33;98.68
